Time;durP1;ratioP1;P1;durP2;ratioP2;P2;SDS_P1;SDS_P2;PMS_P1;PMS_P2;Temp;Humidity;BMP_temperature;BMP_pressure;BME280_temperature;BME280_humidity;BME280_pressure;Samples;Min_cycle;Max_cycle;Signal;HPM_P1;HPM_P2
2021/04/29 00:01:49;;;;;;;10.30;9.30;;;12.10;99.90;;;;;;6128952;23;20157;-86
2021/04/29 00:04:15;;;;;;;10.60;9.50;;;12.10;99.90;;;;;;6127773;23;20173;-85
2021/04/29 00:06:41;;;;;;;11.23;9.90;;;12.00;99.90;;;;;;6151901;23;20619;-85
2021/04/29 00:09:07;;;;;;;12.80;9.83;;;12.00;99.90;;;;;;6126544;23;20679;-88
2021/04/29 00:11:34;;;;;;;10.10;9.10;;;12.00;99.90;;;;;;6129305;23;20173;-86
2021/04/29 00:14:02;;;;;;;10.80;9.50;;;11.90;99.90;;;;;;6155964;23;20560;-86
2021/04/29 00:16:27;;;;;;;10.37;9.27;;;11.90;99.90;;;;;;6133239;23;20587;-87
2021/04/29 00:18:53;;;;;;;10.70;9.70;;;11.90;99.90;;;;;;6132336;23;20601;-87
2021/04/29 00:21:19;;;;;;;10.90;9.17;;;11.90;99.90;;;;;;6133195;23;20158;-88
2021/04/29 00:23:45;;;;;;;12.23;10.93;;;11.90;99.90;;;;;;6133212;23;20192;-86
2021/04/29 00:26:10;;;;;;;10.50;9.40;;;11.80;99.90;;;;;;6131488;23;20578;-86
2021/04/29 00:28:36;;;;;;;9.57;8.60;;;11.80;99.90;;;;;;6131214;23;20201;-89
2021/04/29 00:31:02;;;;;;;11.83;10.37;;;11.80;99.90;;;;;;6133590;23;20166;-87
2021/04/29 00:33:28;;;;;;;11.30;10.10;;;11.80;99.90;;;;;;6130704;23;20565;-85
2021/04/29 00:35:53;;;;;;;10.93;9.93;;;11.90;99.90;;;;;;6133686;23;20177;-87
2021/04/29 00:38:19;;;;;;;10.80;9.80;;;11.90;99.90;;;;;;6129457;22;20213;-88
2021/04/29 00:40:45;;;;;;;10.90;9.90;;;11.90;99.90;;;;;;6134587;23;20203;-89
2021/04/29 00:43:12;;;;;;;11.60;10.50;;;11.80;99.90;;;;;;6134551;23;20161;-90
2021/04/29 00:45:39;;;;;;;12.00;10.80;;;11.70;99.90;;;;;;6135102;23;20176;-86
2021/04/29 00:48:05;;;;;;;11.57;10.37;;;11.70;99.90;;;;;;6132855;23;21131;-87
2021/04/29 00:50:30;;;;;;;11.67;10.47;;;11.70;99.90;;;;;;6132255;23;20565;-88
2021/04/29 00:52:56;;;;;;;11.43;10.33;;;11.70;99.90;;;;;;6131782;23;20173;-88
2021/04/29 00:55:22;;;;;;;10.70;9.60;;;11.70;99.90;;;;;;6133116;23;20172;-90
2021/04/29 00:57:48;;;;;;;12.40;10.83;;;11.70;99.90;;;;;;6132365;23;21123;-88
2021/04/29 01:00:14;;;;;;;11.93;10.70;;;11.70;99.90;;;;;;6134360;23;20593;-88
2021/04/29 01:02:50;;;;;;;11.50;10.30;;;11.70;99.90;;;;;;6135744;23;20249;-89
2021/04/29 01:05:24;;;;;;;12.70;11.40;;;11.70;99.90;;;;;;6135345;23;20664;-89
2021/04/29 01:08:09;;;;;;;12.40;11.10;;;11.70;99.90;;;;;;6157177;23;20584;-88
2021/04/29 01:10:43;;;;;;;12.27;11.07;;;11.60;99.90;;;;;;6160972;23;21397;-86
2021/04/29 01:13:12;;;;;;;13.30;12.00;;;11.60;99.90;;;;;;6133381;23;20618;-87
2021/04/29 01:15:43;;;;;;;12.80;11.50;;;11.70;99.90;;;;;;6141840;23;20663;-86
2021/04/29 01:18:14;;;;;;;14.07;12.57;;;11.60;99.90;;;;;;6140144;23;20601;-86
2021/04/29 01:21:05;;;;;;;13.40;12.30;;;11.50;99.90;;;;;;6163434;23;20603;-88
2021/04/29 01:23:41;;;;;;;15.10;13.50;;;11.50;99.90;;;;;;6165719;23;20564;-87
2021/04/29 01:26:29;;;;;;;12.70;11.50;;;11.50;99.90;;;;;;6137063;23;20565;-86
2021/04/29 01:28:56;;;;;;;14.20;12.80;;;11.50;99.90;;;;;;6137696;23;20935;-91
2021/04/29 01:31:31;;;;;;;13.53;12.23;;;11.40;99.90;;;;;;6140509;23;20600;-88
2021/04/29 01:33:59;;;;;;;15.87;12.80;;;11.40;99.90;;;;;;6139962;23;20568;-88
2021/04/29 01:36:28;;;;;;;14.53;12.90;;;11.30;99.90;;;;;;6138234;23;20562;-88
2021/04/29 01:39:03;;;;;;;13.83;12.57;;;11.30;99.90;;;;;;6134921;23;20923;-88
2021/04/29 01:41:29;;;;;;;13.47;12.17;;;11.30;99.90;;;;;;6137228;23;20572;-90
2021/04/29 01:43:55;;;;;;;14.83;13.43;;;11.20;99.90;;;;;;6135938;23;20557;-85
2021/04/29 01:46:22;;;;;;;13.57;12.43;;;11.20;99.90;;;;;;6136555;23;21084;-87
2021/04/29 01:48:48;;;;;;;15.27;13.83;;;11.20;99.90;;;;;;6157121;23;20743;-85
2021/04/29 01:51:13;;;;;;;14.47;13.03;;;11.20;99.90;;;;;;6136129;23;20580;-87
2021/04/29 01:53:39;;;;;;;14.67;13.13;;;11.10;99.90;;;;;;6136566;23;20565;-86
2021/04/29 01:56:05;;;;;;;15.20;13.80;;;11.10;99.90;;;;;;6160106;23;20197;-86
2021/04/29 01:58:31;;;;;;;16.10;14.43;;;11.10;99.90;;;;;;6135403;23;20213;-88
2021/04/29 02:00:57;;;;;;;15.67;14.10;;;11.10;99.90;;;;;;6136725;23;20265;-91
2021/04/29 02:03:22;;;;;;;15.47;13.87;;;11.00;99.90;;;;;;6133373;23;20634;-88
2021/04/29 02:05:48;;;;;;;15.70;14.30;;;11.00;99.90;;;;;;6135189;23;20150;-86
2021/04/29 02:08:14;;;;;;;16.07;14.57;;;11.00;99.90;;;;;;6133880;23;20381;-89
2021/04/29 02:10:39;;;;;;;15.63;14.10;;;11.10;99.90;;;;;;6135888;23;20257;-87
2021/04/29 02:13:12;;;;;;;15.70;14.20;;;11.00;99.90;;;;;;6136014;23;20162;-89
2021/04/29 02:15:41;;;;;;;15.63;14.23;;;11.00;99.90;;;;;;6160553;23;20227;-87
2021/04/29 02:18:15;;;;;;;14.97;13.50;;;11.00;99.90;;;;;;6132598;23;20604;-90
2021/04/29 02:20:42;;;;;;;16.27;14.67;;;10.90;99.90;;;;;;6135836;23;20577;-88
2021/04/29 02:23:18;;;;;;;15.40;14.00;;;10.90;99.90;;;;;;6138208;23;20565;-86
2021/04/29 02:25:50;;;;;;;16.00;14.50;;;10.90;99.90;;;;;;6162777;23;20565;-86
2021/04/29 02:28:17;;;;;;;16.77;15.17;;;10.90;99.90;;;;;;6137263;23;20608;-86
2021/04/29 02:30:43;;;;;;;16.13;14.63;;;10.80;99.90;;;;;;6140366;23;20617;-84
2021/04/29 02:33:09;;;;;;;15.53;14.03;;;10.80;99.90;;;;;;6144879;23;20577;-89
2021/04/29 02:35:35;;;;;;;17.33;15.63;;;10.80;99.90;;;;;;6135445;23;20581;-87
2021/04/29 02:38:02;;;;;;;16.20;14.60;;;10.90;99.90;;;;;;6132713;23;20748;-89
2021/04/29 02:40:29;;;;;;;16.87;15.23;;;10.80;99.90;;;;;;6136312;23;20605;-86
2021/04/29 02:42:56;;;;;;;16.23;14.60;;;10.80;99.90;;;;;;6162843;23;20641;-88
2021/04/29 02:45:21;;;;;;;16.50;14.90;;;10.80;99.90;;;;;;6138465;23;20577;-89
2021/04/29 02:47:50;;;;;;;15.67;14.27;;;10.70;99.90;;;;;;6143212;23;20619;-89
2021/04/29 02:50:18;;;;;;;15.37;14.00;;;10.70;99.90;;;;;;6143383;23;20204;-90
2021/04/29 02:52:45;;;;;;;16.40;14.90;;;10.70;99.90;;;;;;6145408;23;20580;-90
2021/04/29 02:55:11;;;;;;;14.83;13.43;;;10.70;99.90;;;;;;6140180;23;20585;-87
2021/04/29 02:57:37;;;;;;;15.63;14.10;;;10.70;99.90;;;;;;6135434;23;20613;-87
2021/04/29 03:00:10;;;;;;;14.77;13.40;;;10.60;99.90;;;;;;6140324;23;20606;-87
2021/04/29 03:02:36;;;;;;;15.87;14.40;;;10.60;99.90;;;;;;6159761;23;20197;-88
2021/04/29 03:05:02;;;;;;;15.27;13.87;;;10.60;99.90;;;;;;6137752;23;20822;-88
2021/04/29 03:07:30;;;;;;;14.67;13.30;;;10.70;99.90;;;;;;6135659;23;20228;-87
2021/04/29 03:09:56;;;;;;;15.40;13.90;;;10.60;99.90;;;;;;6137897;23;20720;-85
2021/04/29 03:12:22;;;;;;;15.73;14.13;;;10.60;99.90;;;;;;6132759;23;20561;-87
2021/04/29 03:14:47;;;;;;;15.50;14.10;;;10.60;99.90;;;;;;6134687;23;20170;-86
2021/04/29 03:17:13;;;;;;;17.00;15.20;;;10.60;99.90;;;;;;6133169;23;20223;-87
2021/04/29 03:19:38;;;;;;;15.87;14.37;;;10.60;99.90;;;;;;6137260;23;20652;-86
2021/04/29 03:22:06;;;;;;;14.43;13.07;;;10.60;99.90;;;;;;6137032;23;20233;-87
2021/04/29 03:24:31;;;;;;;16.43;14.93;;;10.50;99.90;;;;;;6136735;23;20162;-86
2021/04/29 03:26:57;;;;;;;15.73;14.33;;;10.60;99.90;;;;;;6138197;23;20565;-87
2021/04/29 03:29:23;;;;;;;15.70;14.07;;;10.50;99.90;;;;;;6139789;23;20287;-89
2021/04/29 03:31:48;;;;;;;15.10;13.60;;;10.50;99.90;;;;;;6139091;23;20162;-88
2021/04/29 03:34:14;;;;;;;15.97;14.40;;;10.50;99.90;;;;;;6136242;23;20649;-87
2021/04/29 03:36:39;;;;;;;15.60;14.10;;;10.50;99.90;;;;;;6139732;23;20312;-86
2021/04/29 03:39:05;;;;;;;16.03;14.43;;;10.50;99.90;;;;;;6137673;22;20286;-89
2021/04/29 03:41:31;;;;;;;18.10;14.83;;;10.50;99.90;;;;;;6136603;23;20161;-89
2021/04/29 03:44:00;;;;;;;16.37;14.73;;;10.50;99.90;;;;;;6137159;23;20704;-88
2021/04/29 03:46:25;;;;;;;16.30;14.80;;;10.50;99.90;;;;;;6162364;23;20236;-86
2021/04/29 03:48:51;;;;;;;15.17;13.70;;;10.50;99.90;;;;;;6137042;23;20600;-87
2021/04/29 03:51:24;;;;;;;15.47;14.07;;;10.50;99.90;;;;;;6137503;23;20161;-88
2021/04/29 03:53:50;;;;;;;17.57;14.90;;;10.50;99.90;;;;;;6161772;23;20158;-86
2021/04/29 03:56:15;;;;;;;16.10;14.60;;;10.50;99.90;;;;;;6135669;23;20568;-87
2021/04/29 03:58:41;;;;;;;16.40;14.70;;;10.50;99.90;;;;;;6136021;23;20418;-88
2021/04/29 04:01:06;;;;;;;16.60;15.00;;;10.50;99.90;;;;;;6133636;23;20596;-83
2021/04/29 04:03:32;;;;;;;16.27;14.87;;;10.50;99.90;;;;;;6137019;23;20181;-87
2021/04/29 04:05:58;;;;;;;17.20;15.50;;;10.50;99.90;;;;;;6137749;23;20201;-85
2021/04/29 04:08:23;;;;;;;15.97;14.57;;;10.50;99.90;;;;;;6136778;23;20201;-84
2021/04/29 04:10:49;;;;;;;16.13;14.67;;;10.50;99.90;;;;;;6137765;23;20724;-88
2021/04/29 04:13:17;;;;;;;17.03;15.30;;;10.40;99.90;;;;;;6142025;23;20145;-89
2021/04/29 04:15:42;;;;;;;16.37;14.70;;;10.40;99.90;;;;;;6164691;23;20154;-89
2021/04/29 04:18:08;;;;;;;16.63;14.90;;;10.50;99.90;;;;;;6136326;22;20707;-89
2021/04/29 04:20:33;;;;;;;15.73;14.37;;;10.50;99.90;;;;;;6139475;23;20181;-88
2021/04/29 04:22:59;;;;;;;16.97;15.27;;;10.40;99.90;;;;;;6137028;23;20180;-88
2021/04/29 04:25:24;;;;;;;16.60;15.07;;;10.50;99.90;;;;;;6137690;23;20181;-88
2021/04/29 04:27:50;;;;;;;17.03;15.50;;;10.40;99.90;;;;;;6139198;23;20307;-92
2021/04/29 04:30:16;;;;;;;16.97;15.27;;;10.40;99.90;;;;;;6140002;23;20466;-91
2021/04/29 04:32:44;;;;;;;17.60;15.80;;;10.40;99.90;;;;;;6138682;23;20245;-87
2021/04/29 04:35:10;;;;;;;17.50;15.90;;;10.40;99.90;;;;;;6163762;23;20597;-87
2021/04/29 04:37:36;;;;;;;17.07;15.50;;;10.50;99.90;;;;;;6137669;23;20605;-89
2021/04/29 04:40:05;;;;;;;17.10;15.60;;;10.40;99.90;;;;;;6154468;23;20739;-73
2021/04/29 04:42:30;;;;;;;17.27;15.50;;;10.40;99.90;;;;;;6138326;23;20160;-73
2021/04/29 04:44:56;;;;;;;16.27;14.70;;;10.40;99.90;;;;;;6134819;23;20545;-73
2021/04/29 04:47:22;;;;;;;17.60;15.93;;;10.40;99.90;;;;;;6157943;22;20599;-73
2021/04/29 04:49:47;;;;;;;17.50;15.90;;;10.40;99.90;;;;;;6137196;23;20492;-73
2021/04/29 04:52:13;;;;;;;18.50;16.60;;;10.40;99.90;;;;;;6127568;23;20634;-73
2021/04/29 04:54:39;;;;;;;17.70;15.73;;;10.40;99.90;;;;;;6129576;23;20291;-74
2021/04/29 04:57:05;;;;;;;17.70;15.93;;;10.40;99.90;;;;;;6131104;22;20188;-73
2021/04/29 04:59:30;;;;;;;17.73;16.10;;;10.40;99.90;;;;;;6150392;23;20192;-73
2021/04/29 05:01:56;;;;;;;18.30;16.60;;;10.40;99.90;;;;;;6133221;23;20907;-74
2021/04/29 05:04:27;;;;;;;17.90;16.10;;;10.40;99.90;;;;;;6130934;23;20659;-74
2021/04/29 05:06:54;;;;;;;18.03;16.23;;;10.40;99.90;;;;;;6134242;23;20560;-74
2021/04/29 05:09:20;;;;;;;18.23;16.33;;;10.50;99.90;;;;;;6124954;22;20604;-74
2021/04/29 05:11:46;;;;;;;18.50;16.20;;;10.50;99.90;;;;;;6118929;23;20998;-74
2021/04/29 05:14:11;;;;;;;19.37;17.57;;;10.50;99.90;;;;;;6110872;22;20264;-73
2021/04/29 05:16:37;;;;;;;20.20;18.20;;;10.50;99.90;;;;;;6124067;23;20162;-73
2021/04/29 05:19:02;;;;;;;20.30;18.30;;;10.60;99.90;;;;;;6125077;22;20237;-72
2021/04/29 05:21:28;;;;;;;23.40;19.60;;;10.60;99.90;;;;;;6124119;23;20173;-72
2021/04/29 05:23:54;;;;;;;22.00;19.93;;;10.60;99.90;;;;;;6130904;23;20158;-72
2021/04/29 05:26:19;;;;;;;19.63;17.80;;;10.70;99.90;;;;;;6127017;23;20206;-70
2021/04/29 05:28:45;;;;;;;19.40;17.50;;;10.70;99.90;;;;;;6151028;22;20204;-73
2021/04/29 05:31:10;;;;;;;19.37;17.37;;;10.70;99.90;;;;;;6137758;23;20418;-72
2021/04/29 05:33:38;;;;;;;20.50;18.37;;;10.80;99.90;;;;;;6134801;23;20241;-73
2021/04/29 05:36:06;;;;;;;18.67;16.93;;;10.80;99.90;;;;;;6138435;23;20252;-73
2021/04/29 05:38:32;;;;;;;20.30;18.40;;;10.90;99.90;;;;;;6133587;22;21238;-72
2021/04/29 05:40:58;;;;;;;18.77;16.93;;;10.90;99.90;;;;;;6131778;23;20589;-72
2021/04/29 05:43:24;;;;;;;19.03;17.13;;;10.90;99.90;;;;;;6138493;23;20577;-72
2021/04/29 05:45:49;;;;;;;18.67;16.90;;;10.90;99.90;;;;;;6135128;23;20165;-73
2021/04/29 05:48:15;;;;;;;19.13;17.37;;;10.90;99.90;;;;;;6156278;22;20229;-73
2021/04/29 05:50:41;;;;;;;18.47;16.57;;;11.00;99.90;;;;;;6126947;23;20216;-73
2021/04/29 05:53:06;;;;;;;19.40;17.53;;;11.00;99.90;;;;;;6160186;23;20233;-73
2021/04/29 05:55:32;;;;;;;18.43;16.80;;;11.00;99.90;;;;;;6139702;23;20169;-72
2021/04/29 05:57:59;;;;;;;20.07;18.27;;;11.00;99.90;;;;;;6133868;22;20231;-72
2021/04/29 06:00:25;;;;;;;18.83;17.13;;;11.10;99.90;;;;;;6137749;23;20178;-72
2021/04/29 06:02:51;;;;;;;18.77;17.07;;;11.10;99.90;;;;;;6134829;23;20556;-72
2021/04/29 06:05:16;;;;;;;21.00;18.90;;;11.10;99.90;;;;;;6125596;23;20548;-73
2021/04/29 06:07:42;;;;;;;20.27;18.37;;;11.10;99.90;;;;;;6134104;22;20690;-72
2021/04/29 06:10:09;;;;;;;19.13;17.33;;;11.10;99.90;;;;;;6134538;23;20383;-72
2021/04/29 06:12:34;;;;;;;20.13;18.23;;;11.10;99.90;;;;;;6137245;23;20173;-72
2021/04/29 06:15:00;;;;;;;20.20;18.40;;;11.10;99.90;;;;;;6139402;23;20533;-72
2021/04/29 06:17:25;;;;;;;19.43;17.73;;;11.20;99.90;;;;;;6134476;22;20640;-73
2021/04/29 06:19:51;;;;;;;20.37;18.33;;;11.20;99.90;;;;;;6137757;23;20177;-73
2021/04/29 06:22:17;;;;;;;21.43;18.37;;;11.20;99.90;;;;;;6141144;23;20596;-73
2021/04/29 06:24:43;;;;;;;20.67;18.77;;;11.20;99.90;;;;;;6139705;23;20169;-72
2021/04/29 06:27:08;;;;;;;21.20;19.20;;;11.30;99.90;;;;;;6138024;22;20158;-72
2021/04/29 06:29:34;;;;;;;20.37;18.47;;;11.30;99.90;;;;;;6140540;23;20288;-72
2021/04/29 06:32:02;;;;;;;20.43;18.60;;;11.30;99.90;;;;;;6139575;23;20242;-73
2021/04/29 06:34:31;;;;;;;20.93;18.93;;;11.40;99.90;;;;;;6138412;23;20552;-72
2021/04/29 06:36:56;;;;;;;21.33;19.30;;;11.40;99.90;;;;;;6138697;22;20587;-72
2021/04/29 06:39:22;;;;;;;21.13;19.17;;;11.30;99.90;;;;;;6134855;23;20981;-73
2021/04/29 06:41:48;;;;;;;21.03;18.97;;;11.30;99.90;;;;;;6141174;23;20173;-73
2021/04/29 06:44:14;;;;;;;23.40;21.20;;;11.30;99.90;;;;;;6139780;23;20551;-72
2021/04/29 06:46:40;;;;;;;21.53;19.53;;;11.20;99.90;;;;;;6140007;23;20150;-73
2021/04/29 06:49:06;;;;;;;21.77;19.47;;;11.30;99.90;;;;;;6141015;22;20328;-73
2021/04/29 06:51:34;;;;;;;22.23;20.17;;;11.30;99.90;;;;;;6142330;23;20573;-73
2021/04/29 06:54:00;;;;;;;22.77;20.67;;;11.40;99.90;;;;;;6142952;23;20541;-73
2021/04/29 06:56:25;;;;;;;22.33;20.10;;;11.30;99.90;;;;;;6137991;23;20534;-74
2021/04/29 06:58:51;;;;;;;21.67;19.60;;;11.40;99.90;;;;;;6162282;22;20565;-73
2021/04/29 07:01:16;;;;;;;24.23;21.87;;;11.30;99.90;;;;;;6140880;23;20181;-73
2021/04/29 07:03:42;;;;;;;21.70;19.70;;;11.30;99.90;;;;;;6134807;23;20666;-72
2021/04/29 07:06:08;;;;;;;24.70;22.33;;;11.30;99.90;;;;;;6137684;23;20169;-72
2021/04/29 07:08:33;;;;;;;21.60;19.70;;;11.30;99.90;;;;;;6135179;22;20221;-72
2021/04/29 07:11:04;;;;;;;23.10;20.70;;;11.30;99.90;;;;;;6138472;23;20794;-72
2021/04/29 07:13:30;;;;;;;23.10;20.90;;;11.30;99.90;;;;;;6139812;23;20220;-72
2021/04/29 07:15:56;;;;;;;21.93;19.90;;;11.20;99.90;;;;;;6143642;23;21003;-72
2021/04/29 07:18:21;;;;;;;23.90;21.63;;;11.20;99.90;;;;;;6161298;22;20624;-72
2021/04/29 07:20:47;;;;;;;22.80;20.70;;;11.20;99.90;;;;;;6137662;23;20621;-72
2021/04/29 07:23:13;;;;;;;23.40;21.20;;;11.20;99.90;;;;;;6139177;23;20181;-72
2021/04/29 07:25:38;;;;;;;21.67;19.63;;;11.20;99.90;;;;;;6139047;23;20571;-72
2021/04/29 07:28:05;;;;;;;24.07;21.47;;;11.20;99.90;;;;;;6136509;22;20209;-72
2021/04/29 07:30:31;;;;;;;23.87;21.60;;;11.10;99.90;;;;;;6140118;23;20181;-72
2021/04/29 07:32:57;;;;;;;22.70;20.50;;;11.10;99.90;;;;;;6136096;23;20534;-72
2021/04/29 07:35:23;;;;;;;22.57;20.47;;;11.10;99.90;;;;;;6135238;23;20529;-73
2021/04/29 07:37:49;;;;;;;22.90;20.80;;;11.00;99.90;;;;;;6136024;22;20239;-72
2021/04/29 07:40:15;;;;;;;21.60;19.40;;;11.00;99.90;;;;;;6139311;23;20574;-73
2021/04/29 07:42:41;;;;;;;24.07;20.10;;;11.00;99.90;;;;;;6141864;23;20603;-73
2021/04/29 07:45:09;;;;;;;22.30;20.27;;;11.00;99.90;;;;;;6138417;23;21067;-71
2021/04/29 07:47:34;;;;;;;22.53;20.23;;;11.00;99.90;;;;;;6138027;22;20212;-71
2021/04/29 07:50:00;;;;;;;22.83;20.80;;;11.10;99.90;;;;;;6141563;23;20640;-72
2021/04/29 07:52:26;;;;;;;35.27;21.40;;;11.10;99.90;;;;;;6137078;23;20249;-72
2021/04/29 07:54:51;;;;;;;25.10;22.40;;;11.10;99.90;;;;;;6138557;23;20162;-72
2021/04/29 07:57:19;;;;;;;26.63;23.80;;;11.10;99.90;;;;;;6134964;22;20618;-72
2021/04/29 07:59:45;;;;;;;29.30;22.10;;;11.10;99.90;;;;;;6133201;23;20253;-73
2021/04/29 08:02:11;;;;;;;27.67;22.50;;;11.20;99.90;;;;;;6137053;23;20581;-73
2021/04/29 08:04:39;;;;;;;25.57;21.50;;;11.20;99.90;;;;;;6137599;23;20545;-72
2021/04/29 08:07:06;;;;;;;25.30;22.80;;;11.10;99.90;;;;;;6132944;22;20170;-73
2021/04/29 08:09:34;;;;;;;24.30;21.70;;;11.20;99.90;;;;;;6137211;23;20656;-72
2021/04/29 08:12:00;;;;;;;23.33;20.87;;;11.10;99.90;;;;;;6129036;23;20596;-72
2021/04/29 08:14:28;;;;;;;25.67;22.97;;;11.30;99.90;;;;;;6138653;23;21058;-73
2021/04/29 08:16:53;;;;;;;25.80;23.20;;;11.30;99.90;;;;;;6133512;22;20222;-71
2021/04/29 08:19:19;;;;;;;27.10;24.33;;;11.30;99.90;;;;;;6136077;23;21023;-72
2021/04/29 08:21:47;;;;;;;25.70;23.20;;;11.30;99.90;;;;;;6136695;23;20178;-72
2021/04/29 08:24:13;;;;;;;28.90;26.00;;;11.30;99.90;;;;;;6163765;23;20359;-71
2021/04/29 08:26:39;;;;;;;26.77;23.53;;;11.40;99.90;;;;;;6140895;23;20545;-71
2021/04/29 08:29:05;;;;;;;25.07;22.63;;;11.40;99.90;;;;;;6139049;22;20209;-71
2021/04/29 08:31:31;;;;;;;24.43;21.97;;;11.40;99.90;;;;;;6140951;23;20918;-71
2021/04/29 08:33:57;;;;;;;24.10;21.60;;;11.40;99.90;;;;;;6137664;23;20508;-71
2021/04/29 08:36:22;;;;;;;26.13;23.53;;;11.50;99.90;;;;;;6138253;23;20540;-70
2021/04/29 08:38:48;;;;;;;24.80;22.50;;;11.50;99.90;;;;;;6138006;22;20239;-71
2021/04/29 08:41:14;;;;;;;24.20;21.90;;;11.40;99.90;;;;;;6141854;23;20716;-71
2021/04/29 08:43:42;;;;;;;23.03;20.93;;;11.40;99.90;;;;;;6137730;23;20671;-71
2021/04/29 08:46:07;;;;;;;25.13;22.50;;;11.40;99.90;;;;;;6138253;23;20334;-71
2021/04/29 08:48:33;;;;;;;24.30;21.90;;;11.50;99.90;;;;;;6138893;22;20600;-71
2021/04/29 08:51:01;;;;;;;23.90;21.50;;;11.60;99.90;;;;;;6139427;23;20208;-71
2021/04/29 08:53:27;;;;;;;25.17;22.47;;;11.50;99.90;;;;;;6139369;23;20639;-71
2021/04/29 08:55:52;;;;;;;23.50;21.30;;;11.50;99.90;;;;;;6142230;23;20561;-71
2021/04/29 08:58:20;;;;;;;25.30;22.70;;;11.50;99.90;;;;;;6138669;22;20263;-70
2021/04/29 09:00:56;;;;;;;24.97;22.37;;;11.60;99.90;;;;;;6139900;23;20181;-71
2021/04/29 09:03:34;;;;;;;25.07;22.70;;;11.60;99.90;;;;;;6136471;23;20559;-70
2021/04/29 09:06:02;;;;;;;26.83;24.20;;;11.60;99.90;;;;;;6137134;23;20564;-70
2021/04/29 09:08:29;;;;;;;25.30;22.87;;;11.60;99.90;;;;;;6131308;22;20683;-71
2021/04/29 09:11:06;;;;;;;25.93;23.20;;;11.60;99.90;;;;;;6137616;23;20577;-71
2021/04/29 09:13:32;;;;;;;26.07;23.43;;;11.70;99.90;;;;;;6161604;23;20560;-71
2021/04/29 09:16:07;;;;;;;25.70;23.30;;;11.70;99.90;;;;;;6139297;23;20812;-71
2021/04/29 09:18:36;;;;;;;25.27;22.73;;;11.70;99.90;;;;;;6136863;22;20684;-71
2021/04/29 09:21:10;;;;;;;24.93;22.50;;;11.80;99.90;;;;;;6136759;23;20762;-71
2021/04/29 09:23:37;;;;;;;26.17;23.37;;;11.80;99.90;;;;;;6134959;23;20971;-71
2021/04/29 09:26:10;;;;;;;25.97;23.57;;;11.80;99.90;;;;;;6156042;23;20557;-70
2021/04/29 09:28:48;;;;;;;25.17;22.60;;;11.80;99.90;;;;;;6130862;23;20589;-71
2021/04/29 09:31:18;;;;;;;26.47;23.77;;;11.80;99.90;;;;;;6135602;23;20560;-70
2021/04/29 09:33:49;;;;;;;26.93;24.23;;;11.80;99.90;;;;;;6137056;23;21105;-70
2021/04/29 09:36:29;;;;;;;24.50;22.10;;;11.80;99.90;;;;;;6154031;23;20587;-69
2021/04/29 09:39:07;;;;;;;25.37;23.00;;;11.90;99.90;;;;;;6127473;23;20642;-70
2021/04/29 09:41:38;;;;;;;25.73;23.40;;;11.90;99.90;;;;;;6135640;23;20678;-70
2021/04/29 09:44:07;;;;;;;28.10;25.30;;;11.90;99.90;;;;;;6135912;23;20695;-69
2021/04/29 09:46:48;;;;;;;25.87;23.43;;;11.90;99.90;;;;;;6136880;23;20705;-71
2021/04/29 09:49:30;;;;;;;26.03;23.50;;;12.00;99.90;;;;;;6136390;22;20597;-70
2021/04/29 09:51:58;;;;;;;27.27;24.50;;;12.00;99.90;;;;;;6138787;23;20895;-70
2021/04/29 09:54:29;;;;;;;28.10;25.10;;;12.00;99.90;;;;;;6135836;22;20811;-71
2021/04/29 09:57:06;;;;;;;27.00;24.23;;;12.00;99.90;;;;;;6137447;22;20541;-70
2021/04/29 09:59:33;;;;;;;26.60;23.90;;;12.00;99.90;;;;;;6140601;23;20547;-70
2021/04/29 10:01:59;;;;;;;25.97;23.47;;;12.00;99.90;;;;;;6136412;23;20599;-72
2021/04/29 10:04:30;;;;;;;26.10;23.50;;;12.00;99.90;;;;;;6133185;23;20602;-70
2021/04/29 10:06:56;;;;;;;25.60;23.10;;;12.00;99.90;;;;;;6156087;22;20565;-72
2021/04/29 10:09:28;;;;;;;27.07;24.37;;;12.00;99.90;;;;;;6129296;23;20958;-74
2021/04/29 10:12:08;;;;;;;26.30;23.53;;;12.00;99.90;;;;;;6131546;23;20587;-73
2021/04/29 10:14:48;;;;;;;25.47;23.07;;;12.00;99.90;;;;;;6153984;23;20549;-71
2021/04/29 10:17:15;;;;;;;27.43;24.63;;;12.00;99.90;;;;;;6132739;22;20624;-70
2021/04/29 10:19:51;;;;;;;26.17;23.47;;;12.00;99.90;;;;;;6131317;23;20598;-72
2021/04/29 10:22:17;;;;;;;25.97;23.40;;;12.00;99.90;;;;;;6128953;23;20722;-71
2021/04/29 10:24:44;;;;;;;25.23;22.93;;;11.90;99.90;;;;;;6130350;23;20586;-70
2021/04/29 10:27:12;;;;;;;26.20;23.50;;;11.90;99.90;;;;;;6135996;22;20596;-71
2021/04/29 10:29:40;;;;;;;26.97;24.10;;;11.90;99.90;;;;;;6157460;23;20640;-74
2021/04/29 10:32:12;;;;;;;26.80;24.30;;;11.80;99.90;;;;;;6132608;23;20565;-73
2021/04/29 10:34:49;;;;;;;27.77;24.90;;;11.80;99.90;;;;;;6136879;23;20545;-73
2021/04/29 10:37:17;;;;;;;27.83;25.20;;;11.70;99.90;;;;;;6136095;22;20601;-73
2021/04/29 10:39:52;;;;;;;26.83;23.87;;;11.70;99.90;;;;;;6129463;23;20604;-72
2021/04/29 10:42:19;;;;;;;27.40;24.60;;;11.70;99.90;;;;;;6132788;23;20576;-72
2021/04/29 10:44:52;;;;;;;28.10;25.30;;;11.60;99.90;;;;;;6151067;23;20651;-68
2021/04/29 10:47:29;;;;;;;27.07;24.53;;;11.60;99.90;;;;;;6158236;23;20588;-67
2021/04/29 10:50:18;;;;;;;28.00;25.10;;;11.60;99.90;;;;;;6163687;23;20559;-67
2021/04/29 10:53:02;;;;;;;28.57;25.80;;;11.70;99.90;;;;;;6167695;23;21070;-67
2021/04/29 10:55:31;;;;;;;26.03;23.50;;;11.60;99.90;;;;;;6170803;23;20575;-67
2021/04/29 10:57:59;;;;;;;27.57;24.77;;;11.60;99.90;;;;;;6188160;23;20686;-62
2021/04/29 11:00:30;;;;;;;27.83;24.93;;;11.70;99.90;;;;;;6192925;23;20577;-65
2021/04/29 11:03:03;;;;;;;26.70;23.90;;;11.70;99.90;;;;;;6193321;23;20546;-63
2021/04/29 11:05:30;;;;;;;27.13;23.93;;;11.70;99.90;;;;;;6194727;23;20508;-63
2021/04/29 11:08:03;;;;;;;25.77;23.17;;;11.70;99.90;;;;;;6192917;23;20591;-65
2021/04/29 11:10:33;;;;;;;26.87;24.20;;;11.70;99.90;;;;;;6202931;22;20563;-63
2021/04/29 11:13:00;;;;;;;27.33;24.60;;;11.60;99.90;;;;;;6200080;22;20862;-65
2021/04/29 11:15:38;;;;;;;27.10;24.30;;;11.60;99.90;;;;;;6195396;22;20535;-65
2021/04/29 11:18:15;;;;;;;24.30;21.90;;;11.60;99.90;;;;;;6193280;23;20615;-65
2021/04/29 11:20:51;;;;;;;24.93;22.50;;;11.50;99.90;;;;;;6194404;23;20593;-65
2021/04/29 11:23:19;;;;;;;25.80;23.17;;;11.50;99.90;;;;;;6196599;23;20532;-65
2021/04/29 11:25:46;;;;;;;23.80;21.53;;;11.50;99.90;;;;;;6189929;23;21064;-65
2021/04/29 11:28:11;;;;;;;24.97;22.47;;;11.50;99.90;;;;;;6194351;23;20591;-63
2021/04/29 11:30:39;;;;;;;25.50;23.10;;;11.40;99.90;;;;;;6188545;23;20686;-65
2021/04/29 11:33:10;;;;;;;24.40;22.10;;;11.40;99.90;;;;;;6197991;22;20556;-67
2021/04/29 11:35:38;;;;;;;25.30;22.90;;;11.40;99.90;;;;;;6191772;22;20503;-65
2021/04/29 11:38:07;;;;;;;24.00;21.80;;;11.30;99.90;;;;;;6170115;22;20613;-68
2021/04/29 11:40:34;;;;;;;24.80;22.50;;;11.30;99.90;;;;;;6193280;22;20622;-67
2021/04/29 11:43:01;;;;;;;24.07;21.80;;;11.30;99.90;;;;;;6200254;22;20527;-69
2021/04/29 11:45:33;;;;;;;24.70;22.30;;;11.30;99.90;;;;;;6194007;22;20512;-69
2021/04/29 11:48:08;;;;;;;25.30;22.90;;;11.20;99.90;;;;;;6194187;23;20595;-67
2021/04/29 11:50:35;;;;;;;23.00;20.80;;;11.30;99.90;;;;;;6208404;22;20650;-69
2021/04/29 11:53:03;;;;;;;24.47;21.87;;;11.30;99.90;;;;;;6202790;23;20626;-67
2021/04/29 11:55:29;;;;;;;21.60;19.50;;;11.30;99.90;;;;;;6206826;23;20671;-67
2021/04/29 11:58:02;;;;;;;23.37;21.00;;;11.30;99.90;;;;;;6174543;22;20998;-69
2021/04/29 12:00:34;;;;;;;24.40;22.10;;;11.30;99.90;;;;;;6174804;22;20646;-68
2021/04/29 12:03:01;;;;;;;25.10;22.50;;;11.30;99.90;;;;;;6172953;22;20602;-68
2021/04/29 12:05:31;;;;;;;23.80;21.47;;;11.30;99.90;;;;;;6172069;22;20571;-69
2021/04/29 12:07:57;;;;;;;23.27;20.97;;;11.30;99.90;;;;;;6168458;23;21396;-69
2021/04/29 12:10:22;;;;;;;23.97;21.60;;;11.30;99.90;;;;;;6195728;23;20585;-68
2021/04/29 12:12:51;;;;;;;25.10;22.70;;;11.20;99.90;;;;;;6201256;23;20183;-67
2021/04/29 12:15:17;;;;;;;24.43;22.13;;;11.20;99.90;;;;;;6198637;23;20160;-67
2021/04/29 12:17:43;;;;;;;24.13;21.63;;;11.20;99.90;;;;;;6195020;23;20637;-67
2021/04/29 12:20:09;;;;;;;25.17;22.73;;;11.20;99.90;;;;;;6196335;23;20169;-67
2021/04/29 12:22:35;;;;;;;23.63;21.43;;;11.20;99.90;;;;;;6197299;23;20244;-69
2021/04/29 12:25:00;;;;;;;24.27;21.80;;;11.20;99.90;;;;;;6170122;22;20415;-68
2021/04/29 12:27:26;;;;;;;22.60;20.30;;;11.10;99.90;;;;;;6191374;23;20248;-68
2021/04/29 12:30:04;;;;;;;25.73;22.77;;;11.20;99.90;;;;;;6195965;23;20156;-67
2021/04/29 12:32:34;;;;;;;24.10;21.67;;;11.10;99.90;;;;;;6187303;23;20665;-69